Airfield :
LOGIN :

Register | Disclaimer

   EN    FR    IT 

 










Legend :    VFR   Marginal VFR   IFR   Intensive IFR   Very Intensive IFR
Visi :
Ceiling :
>= 8 km
>= 3000ft
5 to 8 km
1000 to 3000 ft
1500m to 5 km
500 to 1000 ft
800 to 1500m
200 to 500 ft
< 800m
< 200 ft
Symbols :   Thunderstorms  Fog  Heavy snow  Heavy precipitations  Wind > 20 kt
SIGMETs :     Misc.  Thunderstorms  Icing  Turbulence  Mountain Waves  Volcanic Ashes







- Airport Elevation : 782 ft
- IATA code : BGY


LIME - Orio al Serio International - Bergamo

CURRENT METAR :
  • 180550Z 02005KT CAVOK 04/02 Q1018 NOSIG

EXPIRED METARs :
  • 180520Z 02005KT CAVOK 04/02 Q1018 NOSIG
  • 180450Z 36004KT CAVOK 04/02 Q1018 NOSIG
  • 180420Z 01005KT CAVOK 05/02 Q1018 NOSIG
  • 180350Z 36006KT CAVOK 05/02 Q1018 NOSIG
  • 180320Z 36006KT CAVOK 05/02 Q1018 NOSIG

TAF TAF LIME
Valid from the 18 at 06:00 until the 19 at 06:00 UTC


180500Z 1806/1906 VRB05KT CAVOK
TEMPO 1900/1906 3000 BR
No reported NOTAMs for that airfield.



MET'MAP, your aeronautical weather chart ! - Copyright ORBIFLY December 2007 - Disclaimer

ORBIFLY MET'MAP TEAM :

Programming & Development : Alexandra Zaïnal
Concept & Development : Baudouin d'Aumeries
Co-Development & Prog : Marc-Olivier Méhu
Technical & hardware support : Manuel Goepfert

Contact : metmap@orbifly.com




SOURCES & CREDITS :

   NOAA